sensor_id;sensor_type;location;lat;lon;timestamp;P1;durP1;ratioP1;P2;durP2;ratioP2
72369;SDS011;60343;-32.030;115.880;2023-01-24T00:01:52;3.92;;;0.52;;
72369;SDS011;60343;-32.030;115.880;2023-01-24T00:04:27;3.25;;;0.43;;
72369;SDS011;60343;-32.030;115.880;2023-01-24T00:07:03;6.38;;;0.80;;
72369;SDS011;60343;-32.030;115.880;2023-01-24T00:09:44;8.55;;;0.90;;
72369;SDS011;60343;-32.030;115.880;2023-01-24T00:12:20;4.80;;;0.55;;
72369;SDS011;60343;-32.030;115.880;2023-01-24T00:14:55;2.10;;;0.50;;
72369;SDS011;60343;-32.030;115.880;2023-01-24T00:17:30;4.15;;;0.57;;
72369;SDS011;60343;-32.030;115.880;2023-01-24T00:20:06;4.82;;;0.73;;
72369;SDS011;60343;-32.030;115.880;2023-01-24T00:22:42;4.18;;;0.50;;
72369;SDS011;60343;-32.030;115.880;2023-01-24T00:25:25;4.65;;;0.60;;
72369;SDS011;60343;-32.030;115.880;2023-01-24T00:28:01;6.32;;;0.63;;
72369;SDS011;60343;-32.030;115.880;2023-01-24T00:30:36;4.93;;;0.47;;
72369;SDS011;60343;-32.030;115.880;2023-01-24T00:33:12;3.30;;;0.50;;
72369;SDS011;60343;-32.030;115.880;2023-01-24T00:35:49;5.10;;;0.60;;
72369;SDS011;60343;-32.030;115.880;2023-01-24T00:41:07;4.80;;;0.70;;
72369;SDS011;60343;-32.030;115.880;2023-01-24T00:43:42;3.13;;;0.30;;
72369;SDS011;60343;-32.030;115.880;2023-01-24T00:46:18;3.15;;;0.35;;
72369;SDS011;60343;-32.030;115.880;2023-01-24T00:48:53;3.83;;;0.40;;
72369;SDS011;60343;-32.030;115.880;2023-01-24T00:51:29;4.75;;;0.50;;
72369;SDS011;60343;-32.030;115.880;2023-01-24T00:54:04;3.28;;;0.45;;
72369;SDS011;60343;-32.030;115.880;2023-01-24T00:56:45;5.47;;;0.60;;
72369;SDS011;60343;-32.030;115.880;2023-01-24T00:59:21;5.65;;;0.60;;
72369;SDS011;60343;-32.030;115.880;2023-01-24T01:01:56;5.25;;;0.57;;
72369;SDS011;60343;-32.030;115.880;2023-01-24T01:04:33;5.38;;;0.50;;
72369;SDS011;60343;-32.030;115.880;2023-01-24T01:07:10;5.00;;;0.63;;
72369;SDS011;60343;-32.030;115.880;2023-01-24T01:09:46;4.90;;;0.70;;
72369;SDS011;60343;-32.030;115.880;2023-01-24T01:12:28;3.00;;;0.43;;
72369;SDS011;60343;-32.030;115.880;2023-01-24T01:15:03;4.07;;;0.50;;
72369;SDS011;60343;-32.030;115.880;2023-01-24T01:17:39;3.67;;;0.60;;
72369;SDS011;60343;-32.030;115.880;2023-01-24T01:20:15;2.58;;;0.45;;
72369;SDS011;60343;-32.030;115.880;2023-01-24T01:22:50;5.97;;;0.60;;
72369;SDS011;60343;-32.030;115.880;2023-01-24T01:25:26;6.38;;;0.65;;
72369;SDS011;60343;-32.030;115.880;2023-01-24T01:28:07;4.88;;;0.55;;
72369;SDS011;60343;-32.030;115.880;2023-01-24T01:30:42;4.53;;;0.50;;
72369;SDS011;60343;-32.030;115.880;2023-01-24T01:33:25;3.00;;;0.40;;
72369;SDS011;60343;-32.030;115.880;2023-01-24T01:36:00;4.75;;;0.85;;
72369;SDS011;60343;-32.030;115.880;2023-01-24T01:38:36;3.70;;;0.47;;
72369;SDS011;60343;-32.030;115.880;2023-01-24T01:41:12;4.05;;;0.60;;
72369;SDS011;60343;-32.030;115.880;2023-01-24T01:43:53;5.95;;;0.50;;
72369;SDS011;60343;-32.030;115.880;2023-01-24T01:46:37;6.38;;;0.57;;
72369;SDS011;60343;-32.030;115.880;2023-01-24T01:49:19;4.13;;;0.50;;
72369;SDS011;60343;-32.030;115.880;2023-01-24T01:52:00;3.63;;;0.40;;
72369;SDS011;60343;-32.030;115.880;2023-01-24T01:54:39;4.47;;;0.47;;
72369;SDS011;60343;-32.030;115.880;2023-01-24T01:57:18;5.20;;;0.70;;
72369;SDS011;60343;-32.030;115.880;2023-01-24T02:00:03;5.30;;;0.50;;
72369;SDS011;60343;-32.030;115.880;2023-01-24T02:02:43;5.65;;;0.50;;
72369;SDS011;60343;-32.030;115.880;2023-01-24T02:05:41;5.50;;;0.60;;
72369;SDS011;60343;-32.030;115.880;2023-01-24T02:08:19;4.53;;;0.40;;
72369;SDS011;60343;-32.030;115.880;2023-01-24T02:13:38;3.72;;;0.43;;
72369;SDS011;60343;-32.030;115.880;2023-01-24T02:16:41;4.65;;;0.47;;
72369;SDS011;60343;-32.030;115.880;2023-01-24T02:19:14;4.82;;;0.63;;
72369;SDS011;60343;-32.030;115.880;2023-01-24T02:21:57;4.10;;;0.63;;
72369;SDS011;60343;-32.030;115.880;2023-01-24T02:24:47;5.07;;;0.88;;
72369;SDS011;60343;-32.030;115.880;2023-01-24T02:27:36;4.03;;;0.75;;
72369;SDS011;60343;-32.030;115.880;2023-01-24T02:30:12;2.45;;;0.65;;
72369;SDS011;60343;-32.030;115.880;2023-01-24T02:32:48;2.90;;;0.50;;
72369;SDS011;60343;-32.030;115.880;2023-01-24T02:35:24;3.85;;;0.68;;
72369;SDS011;60343;-32.030;115.880;2023-01-24T02:38:02;4.88;;;0.70;;
72369;SDS011;60343;-32.030;115.880;2023-01-24T02:40:43;4.45;;;0.80;;
72369;SDS011;60343;-32.030;115.880;2023-01-24T02:43:34;5.05;;;0.70;;
72369;SDS011;60343;-32.030;115.880;2023-01-24T02:46:14;5.30;;;0.80;;
72369;SDS011;60343;-32.030;115.880;2023-01-24T02:48:53;4.93;;;0.60;;
72369;SDS011;60343;-32.030;115.880;2023-01-24T02:51:29;3.70;;;0.65;;
72369;SDS011;60343;-32.030;115.880;2023-01-24T02:54:12;2.75;;;0.50;;
72369;SDS011;60343;-32.030;115.880;2023-01-24T02:56:50;4.32;;;0.60;;
72369;SDS011;60343;-32.030;115.880;2023-01-24T02:59:40;5.13;;;0.98;;
72369;SDS011;60343;-32.030;115.880;2023-01-24T03:02:16;5.97;;;0.70;;
72369;SDS011;60343;-32.030;115.880;2023-01-24T03:04:51;5.05;;;0.73;;
72369;SDS011;60343;-32.030;115.880;2023-01-24T03:07:27;5.18;;;0.70;;
72369;SDS011;60343;-32.030;115.880;2023-01-24T03:10:09;5.70;;;0.70;;
72369;SDS011;60343;-32.030;115.880;2023-01-24T03:12:46;6.65;;;0.70;;
72369;SDS011;60343;-32.030;115.880;2023-01-24T03:15:35;5.63;;;0.80;;
72369;SDS011;60343;-32.030;115.880;2023-01-24T03:18:19;4.88;;;0.60;;
72369;SDS011;60343;-32.030;115.880;2023-01-24T03:23:45;5.60;;;0.75;;
72369;SDS011;60343;-32.030;115.880;2023-01-24T03:26:28;3.33;;;0.60;;
72369;SDS011;60343;-32.030;115.880;2023-01-24T03:29:12;4.00;;;0.65;;
72369;SDS011;60343;-32.030;115.880;2023-01-24T03:32:01;15.77;;;1.55;;
72369;SDS011;60343;-32.030;115.880;2023-01-24T03:34:45;8.20;;;0.90;;
72369;SDS011;60343;-32.030;115.880;2023-01-24T03:37:22;8.80;;;0.90;;
72369;SDS011;60343;-32.030;115.880;2023-01-24T03:40:11;5.57;;;0.88;;
72369;SDS011;60343;-32.030;115.880;2023-01-24T03:42:47;6.30;;;0.80;;
72369;SDS011;60343;-32.030;115.880;2023-01-24T03:45:23;5.43;;;1.10;;
72369;SDS011;60343;-32.030;115.880;2023-01-24T03:48:06;18.92;;;2.28;;
72369;SDS011;60343;-32.030;115.880;2023-01-24T03:50:52;8.10;;;0.90;;
72369;SDS011;60343;-32.030;115.880;2023-01-24T03:53:36;11.45;;;1.40;;
72369;SDS011;60343;-32.030;115.880;2023-01-24T03:56:11;10.32;;;1.30;;
72369;SDS011;60343;-32.030;115.880;2023-01-24T03:58:52;10.60;;;1.10;;
72369;SDS011;60343;-32.030;115.880;2023-01-24T04:01:28;7.10;;;0.90;;
72369;SDS011;60343;-32.030;115.880;2023-01-24T04:04:10;8.18;;;1.13;;
72369;SDS011;60343;-32.030;115.880;2023-01-24T04:06:46;8.77;;;1.15;;
72369;SDS011;60343;-32.030;115.880;2023-01-24T04:09:28;8.20;;;1.25;;
72369;SDS011;60343;-32.030;115.880;2023-01-24T04:12:04;7.68;;;1.05;;
72369;SDS011;60343;-32.030;115.880;2023-01-24T04:14:40;11.10;;;1.35;;
72369;SDS011;60343;-32.030;115.880;2023-01-24T04:17:16;6.88;;;1.10;;
72369;SDS011;60343;-32.030;115.880;2023-01-24T04:19:57;7.07;;;1.17;;
72369;SDS011;60343;-32.030;115.880;2023-01-24T04:22:33;8.18;;;1.10;;
72369;SDS011;60343;-32.030;115.880;2023-01-24T04:25:09;8.40;;;1.23;;
72369;SDS011;60343;-32.030;115.880;2023-01-24T04:27:47;6.45;;;1.20;;
72369;SDS011;60343;-32.030;115.880;2023-01-24T04:30:23;6.45;;;1.10;;
72369;SDS011;60343;-32.030;115.880;2023-01-24T04:33:03;6.47;;;1.10;;
72369;SDS011;60343;-32.030;115.880;2023-01-24T04:38:36;5.90;;;1.08;;
72369;SDS011;60343;-32.030;115.880;2023-01-24T04:41:12;8.25;;;1.20;;
72369;SDS011;60343;-32.030;115.880;2023-01-24T04:43:47;8.27;;;1.00;;
72369;SDS011;60343;-32.030;115.880;2023-01-24T04:46:27;7.18;;;1.10;;
72369;SDS011;60343;-32.030;115.880;2023-01-24T04:49:03;8.35;;;1.00;;
72369;SDS011;60343;-32.030;115.880;2023-01-24T04:51:45;7.55;;;1.20;;
72369;SDS011;60343;-32.030;115.880;2023-01-24T04:54:21;8.30;;;1.10;;
72369;SDS011;60343;-32.030;115.880;2023-01-24T04:56:57;6.35;;;0.90;;
72369;SDS011;60343;-32.030;115.880;2023-01-24T04:59:32;7.15;;;1.30;;
72369;SDS011;60343;-32.030;115.880;2023-01-24T05:02:07;6.15;;;1.05;;
72369;SDS011;60343;-32.030;115.880;2023-01-24T05:04:43;6.63;;;1.02;;
72369;SDS011;60343;-32.030;115.880;2023-01-24T05:07:24;5.95;;;1.10;;
72369;SDS011;60343;-32.030;115.880;2023-01-24T05:10:01;8.10;;;1.00;;
72369;SDS011;60343;-32.030;115.880;2023-01-24T05:12:36;9.60;;;1.50;;
72369;SDS011;60343;-32.030;115.880;2023-01-24T05:15:12;8.60;;;1.00;;
72369;SDS011;60343;-32.030;115.880;2023-01-24T05:17:48;9.00;;;1.10;;
72369;SDS011;60343;-32.030;115.880;2023-01-24T05:20:24;7.28;;;1.00;;
72369;SDS011;60343;-32.030;115.880;2023-01-24T05:23:07;6.30;;;0.98;;
72369;SDS011;60343;-32.030;115.880;2023-01-24T05:25:42;9.27;;;1.23;;
72369;SDS011;60343;-32.030;115.880;2023-01-24T05:28:18;7.03;;;1.10;;
72369;SDS011;60343;-32.030;115.880;2023-01-24T05:30:57;11.15;;;1.40;;
72369;SDS011;60343;-32.030;115.880;2023-01-24T05:33:33;8.00;;;1.20;;
72369;SDS011;60343;-32.030;115.880;2023-01-24T05:36:10;6.82;;;1.20;;
72369;SDS011;60343;-32.030;115.880;2023-01-24T05:38:53;6.47;;;1.10;;
72369;SDS011;60343;-32.030;115.880;2023-01-24T05:41:28;5.57;;;1.10;;
72369;SDS011;60343;-32.030;115.880;2023-01-24T05:44:04;10.98;;;1.20;;
72369;SDS011;60343;-32.030;115.880;2023-01-24T05:46:39;5.43;;;1.25;;
72369;SDS011;60343;-32.030;115.880;2023-01-24T05:49:15;7.90;;;1.10;;
72369;SDS011;60343;-32.030;115.880;2023-01-24T05:51:50;6.18;;;1.02;;
72369;SDS011;60343;-32.030;115.880;2023-01-24T05:54:32;8.40;;;1.23;;
72369;SDS011;60343;-32.030;115.880;2023-01-24T05:57:07;5.38;;;0.80;;
72369;SDS011;60343;-32.030;115.880;2023-01-24T05:59:44;6.28;;;1.05;;
72369;SDS011;60343;-32.030;115.880;2023-01-24T06:02:20;10.32;;;1.20;;
72369;SDS011;60343;-32.030;115.880;2023-01-24T06:04:55;5.97;;;0.98;;
72369;SDS011;60343;-32.030;115.880;2023-01-24T06:07:31;5.63;;;0.95;;
72369;SDS011;60343;-32.030;115.880;2023-01-24T06:10:16;8.38;;;1.23;;
72369;SDS011;60343;-32.030;115.880;2023-01-24T06:12:52;9.93;;;1.10;;
72369;SDS011;60343;-32.030;115.880;2023-01-24T06:15:28;7.80;;;1.30;;
72369;SDS011;60343;-32.030;115.880;2023-01-24T06:18:03;9.10;;;1.00;;
72369;SDS011;60343;-32.030;115.880;2023-01-24T06:20:39;4.80;;;0.88;;
72369;SDS011;60343;-32.030;115.880;2023-01-24T06:23:19;6.00;;;1.05;;
72369;SDS011;60343;-32.030;115.880;2023-01-24T06:26:04;5.93;;;1.02;;
72369;SDS011;60343;-32.030;115.880;2023-01-24T06:28:43;6.30;;;0.90;;
72369;SDS011;60343;-32.030;115.880;2023-01-24T06:31:25;11.73;;;1.20;;
72369;SDS011;60343;-32.030;115.880;2023-01-24T06:34:12;9.68;;;1.13;;
72369;SDS011;60343;-32.030;115.880;2023-01-24T06:36:58;8.63;;;1.50;;
72369;SDS011;60343;-32.030;115.880;2023-01-24T06:39:40;8.48;;;0.95;;
72369;SDS011;60343;-32.030;115.880;2023-01-24T06:42:31;6.15;;;0.98;;
72369;SDS011;60343;-32.030;115.880;2023-01-24T06:45:07;9.52;;;1.35;;
72369;SDS011;60343;-32.030;115.880;2023-01-24T06:47:43;11.98;;;1.35;;
72369;SDS011;60343;-32.030;115.880;2023-01-24T06:50:23;6.63;;;1.08;;
72369;SDS011;60343;-32.030;115.880;2023-01-24T06:52:59;9.40;;;1.30;;
72369;SDS011;60343;-32.030;115.880;2023-01-24T06:55:34;5.78;;;1.00;;
72369;SDS011;60343;-32.030;115.880;2023-01-24T06:58:19;7.68;;;1.02;;
72369;SDS011;60343;-32.030;115.880;2023-01-24T07:00:55;10.48;;;1.30;;
72369;SDS011;60343;-32.030;115.880;2023-01-24T07:03:33;5.40;;;0.85;;
72369;SDS011;60343;-32.030;115.880;2023-01-24T07:06:09;12.13;;;1.27;;
72369;SDS011;60343;-32.030;115.880;2023-01-24T07:08:45;7.55;;;1.00;;
72369;SDS011;60343;-32.030;115.880;2023-01-24T07:11:23;9.80;;;1.30;;
72369;SDS011;60343;-32.030;115.880;2023-01-24T07:14:05;7.45;;;1.00;;
72369;SDS011;60343;-32.030;115.880;2023-01-24T07:16:43;10.00;;;1.48;;
72369;SDS011;60343;-32.030;115.880;2023-01-24T07:19:19;6.70;;;1.10;;
72369;SDS011;60343;-32.030;115.880;2023-01-24T07:21:55;8.80;;;1.38;;
72369;SDS011;60343;-32.030;115.880;2023-01-24T07:24:31;10.27;;;1.40;;
72369;SDS011;60343;-32.030;115.880;2023-01-24T07:27:11;8.93;;;1.20;;
72369;SDS011;60343;-32.030;115.880;2023-01-24T07:29:53;9.50;;;1.33;;
72369;SDS011;60343;-32.030;115.880;2023-01-24T07:32:29;9.13;;;1.30;;
72369;SDS011;60343;-32.030;115.880;2023-01-24T07:35:05;12.60;;;1.30;;
72369;SDS011;60343;-32.030;115.880;2023-01-24T07:37:43;8.85;;;1.30;;
72369;SDS011;60343;-32.030;115.880;2023-01-24T07:40:20;13.32;;;1.20;;
72369;SDS011;60343;-32.030;115.880;2023-01-24T07:42:56;9.45;;;1.40;;
72369;SDS011;60343;-32.030;115.880;2023-01-24T07:45:39;8.25;;;1.30;;
72369;SDS011;60343;-32.030;115.880;2023-01-24T07:48:19;6.25;;;1.10;;
72369;SDS011;60343;-32.030;115.880;2023-01-24T07:50:57;9.52;;;1.30;;
72369;SDS011;60343;-32.030;115.880;2023-01-24T07:53:33;8.45;;;1.20;;
72369;SDS011;60343;-32.030;115.880;2023-01-24T07:56:10;9.98;;;1.55;;
72369;SDS011;60343;-32.030;115.880;2023-01-24T07:58:45;8.52;;;1.20;;
72369;SDS011;60343;-32.030;115.880;2023-01-24T08:01:27;11.32;;;1.20;;
72369;SDS011;60343;-32.030;115.880;2023-01-24T08:04:04;10.85;;;1.77;;
72369;SDS011;60343;-32.030;115.880;2023-01-24T08:06:40;11.70;;;1.27;;
72369;SDS011;60343;-32.030;115.880;2023-01-24T08:09:35;12.40;;;1.30;;
72369;SDS011;60343;-32.030;115.880;2023-01-24T08:12:10;9.27;;;1.20;;
72369;SDS011;60343;-32.030;115.880;2023-01-24T08:14:55;6.05;;;1.23;;
72369;SDS011;60343;-32.030;115.880;2023-01-24T08:17:36;10.48;;;1.23;;
72369;SDS011;60343;-32.030;115.880;2023-01-24T08:20:12;8.52;;;1.50;;
72369;SDS011;60343;-32.030;115.880;2023-01-24T08:22:53;10.02;;;1.25;;
72369;SDS011;60343;-32.030;115.880;2023-01-24T08:25:30;9.55;;;1.40;;
72369;SDS011;60343;-32.030;115.880;2023-01-24T08:30:52;10.30;;;1.38;;
72369;SDS011;60343;-32.030;115.880;2023-01-24T08:33:36;10.25;;;1.20;;
72369;SDS011;60343;-32.030;115.880;2023-01-24T08:36:13;9.13;;;1.10;;
72369;SDS011;60343;-32.030;115.880;2023-01-24T08:38:49;8.18;;;1.33;;
72369;SDS011;60343;-32.030;115.880;2023-01-24T08:44:03;11.43;;;1.50;;
72369;SDS011;60343;-32.030;115.880;2023-01-24T08:46:40;9.40;;;1.52;;
72369;SDS011;60343;-32.030;115.880;2023-01-24T08:49:21;14.02;;;2.00;;
72369;SDS011;60343;-32.030;115.880;2023-01-24T08:51:57;11.10;;;1.30;;
72369;SDS011;60343;-32.030;115.880;2023-01-24T08:54:33;14.75;;;1.80;;
72369;SDS011;60343;-32.030;115.880;2023-01-24T08:57:09;12.95;;;1.67;;
72369;SDS011;60343;-32.030;115.880;2023-01-24T08:59:44;11.68;;;2.38;;
72369;SDS011;60343;-32.030;115.880;2023-01-24T09:02:20;11.50;;;1.55;;
72369;SDS011;60343;-32.030;115.880;2023-01-24T09:05:04;10.50;;;1.50;;
72369;SDS011;60343;-32.030;115.880;2023-01-24T09:07:41;12.98;;;2.15;;
72369;SDS011;60343;-32.030;115.880;2023-01-24T09:10:18;12.10;;;1.40;;
72369;SDS011;60343;-32.030;115.880;2023-01-24T09:12:54;13.77;;;1.42;;
72369;SDS011;60343;-32.030;115.880;2023-01-24T09:15:31;13.95;;;1.67;;
72369;SDS011;60343;-32.030;115.880;2023-01-24T09:18:06;15.00;;;1.60;;
72369;SDS011;60343;-32.030;115.880;2023-01-24T09:20:48;11.30;;;1.45;;
72369;SDS011;60343;-32.030;115.880;2023-01-24T09:23:32;11.45;;;1.70;;
72369;SDS011;60343;-32.030;115.880;2023-01-24T09:26:07;10.68;;;1.70;;
72369;SDS011;60343;-32.030;115.880;2023-01-24T09:28:43;11.25;;;1.30;;
72369;SDS011;60343;-32.030;115.880;2023-01-24T09:31:19;13.48;;;1.60;;
72369;SDS011;60343;-32.030;115.880;2023-01-24T09:33:57;12.07;;;1.40;;
72369;SDS011;60343;-32.030;115.880;2023-01-24T09:36:42;10.90;;;1.27;;
72369;SDS011;60343;-32.030;115.880;2023-01-24T09:39:20;13.70;;;1.65;;
72369;SDS011;60343;-32.030;115.880;2023-01-24T09:41:59;16.67;;;2.00;;
72369;SDS011;60343;-32.030;115.880;2023-01-24T09:44:43;14.60;;;1.75;;
72369;SDS011;60343;-32.030;115.880;2023-01-24T09:47:25;11.40;;;2.28;;
72369;SDS011;60343;-32.030;115.880;2023-01-24T09:50:09;13.95;;;1.73;;
72369;SDS011;60343;-32.030;115.880;2023-01-24T09:52:59;13.77;;;1.60;;
72369;SDS011;60343;-32.030;115.880;2023-01-24T09:55:43;13.57;;;1.55;;
72369;SDS011;60343;-32.030;115.880;2023-01-24T09:58:27;9.57;;;1.70;;
72369;SDS011;60343;-32.030;115.880;2023-01-24T10:01:08;15.18;;;2.10;;
72369;SDS011;60343;-32.030;115.880;2023-01-24T10:03:48;13.55;;;1.20;;
72369;SDS011;60343;-32.030;115.880;2023-01-24T10:06:25;13.63;;;1.70;;
72369;SDS011;60343;-32.030;115.880;2023-01-24T10:09:11;16.70;;;1.80;;
72369;SDS011;60343;-32.030;115.880;2023-01-24T10:14:41;11.82;;;1.70;;
72369;SDS011;60343;-32.030;115.880;2023-01-24T10:17:35;11.18;;;1.70;;
72369;SDS011;60343;-32.030;115.880;2023-01-24T10:20:33;15.02;;;1.88;;
72369;SDS011;60343;-32.030;115.880;2023-01-24T10:23:36;13.57;;;1.63;;
72369;SDS011;60343;-32.030;115.880;2023-01-24T10:26:21;11.40;;;1.45;;
72369;SDS011;60343;-32.030;115.880;2023-01-24T10:29:11;13.60;;;1.75;;
72369;SDS011;60343;-32.030;115.880;2023-01-24T10:32:11;15.07;;;1.55;;
72369;SDS011;60343;-32.030;115.880;2023-01-24T10:34:52;11.73;;;1.55;;
72369;SDS011;60343;-32.030;115.880;2023-01-24T10:37:33;14.70;;;1.60;;
72369;SDS011;60343;-32.030;115.880;2023-01-24T10:40:15;11.77;;;1.33;;
72369;SDS011;60343;-32.030;115.880;2023-01-24T10:43:01;17.05;;;1.50;;
72369;SDS011;60343;-32.030;115.880;2023-01-24T10:45:42;14.10;;;1.83;;
72369;SDS011;60343;-32.030;115.880;2023-01-24T10:48:41;13.43;;;1.25;;
72369;SDS011;60343;-32.030;115.880;2023-01-24T10:51:28;11.00;;;1.40;;
72369;SDS011;60343;-32.030;115.880;2023-01-24T10:54:17;18.63;;;1.73;;
72369;SDS011;60343;-32.030;115.880;2023-01-24T10:56:57;16.55;;;2.13;;
72369;SDS011;60343;-32.030;115.880;2023-01-24T10:59:38;11.23;;;1.45;;
72369;SDS011;60343;-32.030;115.880;2023-01-24T11:02:20;11.68;;;1.65;;
72369;SDS011;60343;-32.030;115.880;2023-01-24T11:04:58;12.93;;;1.67;;
72369;SDS011;60343;-32.030;115.880;2023-01-24T11:07:35;15.90;;;1.60;;
72369;SDS011;60343;-32.030;115.880;2023-01-24T11:10:14;12.77;;;1.50;;
72369;SDS011;60343;-32.030;115.880;2023-01-24T11:12:55;14.40;;;1.48;;
72369;SDS011;60343;-32.030;115.880;2023-01-24T11:15:38;11.25;;;1.50;;
72369;SDS011;60343;-32.030;115.880;2023-01-24T11:18:20;10.82;;;1.27;;
72369;SDS011;60343;-32.030;115.880;2023-01-24T11:23:42;13.35;;;1.55;;
72369;SDS011;60343;-32.030;115.880;2023-01-24T11:26:23;11.15;;;1.40;;
72369;SDS011;60343;-32.030;115.880;2023-01-24T11:29:00;8.25;;;1.25;;
72369;SDS011;60343;-32.030;115.880;2023-01-24T11:31:43;8.75;;;1.40;;
72369;SDS011;60343;-32.030;115.880;2023-01-24T11:37:25;13.93;;;1.40;;
72369;SDS011;60343;-32.030;115.880;2023-01-24T11:40:17;8.15;;;1.40;;
72369;SDS011;60343;-32.030;115.880;2023-01-24T11:46:19;15.20;;;1.63;;
72369;SDS011;60343;-32.030;115.880;2023-01-24T11:49:14;12.55;;;1.35;;
72369;SDS011;60343;-32.030;115.880;2023-01-24T11:52:04;16.83;;;1.35;;
72369;SDS011;60343;-32.030;115.880;2023-01-24T11:54:54;8.70;;;1.30;;
72369;SDS011;60343;-32.030;115.880;2023-01-24T11:57:40;12.48;;;1.55;;
72369;SDS011;60343;-32.030;115.880;2023-01-24T12:00:25;9.65;;;1.30;;
72369;SDS011;60343;-32.030;115.880;2023-01-24T12:03:16;9.20;;;1.20;;
72369;SDS011;60343;-32.030;115.880;2023-01-24T12:06:15;14.93;;;1.42;;
72369;SDS011;60343;-32.030;115.880;2023-01-24T12:09:04;13.40;;;1.40;;
72369;SDS011;60343;-32.030;115.880;2023-01-24T12:11:54;10.48;;;1.10;;
72369;SDS011;60343;-32.030;115.880;2023-01-24T12:17:48;14.20;;;1.42;;
72369;SDS011;60343;-32.030;115.880;2023-01-24T12:20:46;10.07;;;1.30;;
72369;SDS011;60343;-32.030;115.880;2023-01-24T12:23:51;9.60;;;1.20;;
72369;SDS011;60343;-32.030;115.880;2023-01-24T12:26:35;8.65;;;1.20;;
72369;SDS011;60343;-32.030;115.880;2023-01-24T12:29:14;13.50;;;1.27;;
72369;SDS011;60343;-32.030;115.880;2023-01-24T12:31:55;10.07;;;1.45;;
72369;SDS011;60343;-32.030;115.880;2023-01-24T12:34:39;10.85;;;1.40;;
72369;SDS011;60343;-32.030;115.880;2023-01-24T12:37:23;9.20;;;1.17;;
72369;SDS011;60343;-32.030;115.880;2023-01-24T12:40:15;9.88;;;1.35;;
72369;SDS011;60343;-32.030;115.880;2023-01-24T12:45:33;10.38;;;1.23;;
72369;SDS011;60343;-32.030;115.880;2023-01-24T12:48:14;9.05;;;1.08;;
72369;SDS011;60343;-32.030;115.880;2023-01-24T12:50:53;12.00;;;1.65;;
72369;SDS011;60343;-32.030;115.880;2023-01-24T12:53:33;10.90;;;1.20;;
72369;SDS011;60343;-32.030;115.880;2023-01-24T12:56:19;7.10;;;1.13;;
72369;SDS011;60343;-32.030;115.880;2023-01-24T12:58:57;11.35;;;1.10;;
72369;SDS011;60343;-32.030;115.880;2023-01-24T13:01:47;10.35;;;1.02;;
72369;SDS011;60343;-32.030;115.880;2023-01-24T13:04:43;7.28;;;1.02;;
72369;SDS011;60343;-32.030;115.880;2023-01-24T13:07:31;11.57;;;1.50;;
72369;SDS011;60343;-32.030;115.880;2023-01-24T13:10:16;9.63;;;1.30;;
72369;SDS011;60343;-32.030;115.880;2023-01-24T13:13:03;10.15;;;1.60;;
72369;SDS011;60343;-32.030;115.880;2023-01-24T13:15:50;7.03;;;1.13;;
72369;SDS011;60343;-32.030;115.880;2023-01-24T13:18:41;11.70;;;1.55;;
72369;SDS011;60343;-32.030;115.880;2023-01-24T13:21:28;12.27;;;1.10;;
72369;SDS011;60343;-32.030;115.880;2023-01-24T13:27:21;10.43;;;1.17;;
72369;SDS011;60343;-32.030;115.880;2023-01-24T13:30:21;11.35;;;1.40;;
72369;SDS011;60343;-32.030;115.880;2023-01-24T13:33:03;7.40;;;1.25;;
72369;SDS011;60343;-32.030;115.880;2023-01-24T13:35:47;8.00;;;1.25;;
72369;SDS011;60343;-32.030;115.880;2023-01-24T13:38:25;7.93;;;1.10;;
72369;SDS011;60343;-32.030;115.880;2023-01-24T13:41:02;6.40;;;1.17;;
72369;SDS011;60343;-32.030;115.880;2023-01-24T13:49:43;8.45;;;1.15;;
72369;SDS011;60343;-32.030;115.880;2023-01-24T13:52:36;5.95;;;0.80;;
72369;SDS011;60343;-32.030;115.880;2023-01-24T13:58:30;7.43;;;1.55;;
72369;SDS011;60343;-32.030;115.880;2023-01-24T14:01:13;6.05;;;0.90;;
72369;SDS011;60343;-32.030;115.880;2023-01-24T14:03:57;7.78;;;1.10;;
72369;SDS011;60343;-32.030;115.880;2023-01-24T14:06:46;8.07;;;0.90;;
72369;SDS011;60343;-32.030;115.880;2023-01-24T14:09:23;7.38;;;1.27;;
72369;SDS011;60343;-32.030;115.880;2023-01-24T14:12:02;5.68;;;0.90;;
72369;SDS011;60343;-32.030;115.880;2023-01-24T14:17:46;5.50;;;0.90;;
72369;SDS011;60343;-32.030;115.880;2023-01-24T14:20:23;4.60;;;0.70;;
72369;SDS011;60343;-32.030;115.880;2023-01-24T14:23:18;2.80;;;0.85;;
72369;SDS011;60343;-32.030;115.880;2023-01-24T14:25:57;8.13;;;1.23;;
72369;SDS011;60343;-32.030;115.880;2023-01-24T14:28:35;8.10;;;0.88;;
72369;SDS011;60343;-32.030;115.880;2023-01-24T14:31:19;7.68;;;0.65;;
72369;SDS011;60343;-32.030;115.880;2023-01-24T14:33:58;5.80;;;0.93;;
72369;SDS011;60343;-32.030;115.880;2023-01-24T14:36:39;6.03;;;0.80;;
72369;SDS011;60343;-32.030;115.880;2023-01-24T14:39:24;6.85;;;1.00;;
72369;SDS011;60343;-32.030;115.880;2023-01-24T14:42:00;8.43;;;1.13;;
72369;SDS011;60343;-32.030;115.880;2023-01-24T14:44:38;5.15;;;0.88;;
72369;SDS011;60343;-32.030;115.880;2023-01-24T14:47:17;6.65;;;0.70;;
72369;SDS011;60343;-32.030;115.880;2023-01-24T14:49:55;12.15;;;0.98;;
72369;SDS011;60343;-32.030;115.880;2023-01-24T14:52:31;4.57;;;0.80;;
72369;SDS011;60343;-32.030;115.880;2023-01-24T14:55:30;5.15;;;0.80;;
72369;SDS011;60343;-32.030;115.880;2023-01-24T14:58:16;6.78;;;0.70;;
72369;SDS011;60343;-32.030;115.880;2023-01-24T15:00:55;6.05;;;0.70;;
72369;SDS011;60343;-32.030;115.880;2023-01-24T15:03:32;8.43;;;0.80;;
72369;SDS011;60343;-32.030;115.880;2023-01-24T15:06:15;7.93;;;0.80;;
72369;SDS011;60343;-32.030;115.880;2023-01-24T15:08:55;4.88;;;0.60;;
72369;SDS011;60343;-32.030;115.880;2023-01-24T15:11:37;5.25;;;0.70;;
72369;SDS011;60343;-32.030;115.880;2023-01-24T15:14:15;6.78;;;0.73;;
72369;SDS011;60343;-32.030;115.880;2023-01-24T15:16:53;2.92;;;0.43;;
72369;SDS011;60343;-32.030;115.880;2023-01-24T15:19:29;8.18;;;0.90;;
72369;SDS011;60343;-32.030;115.880;2023-01-24T15:22:13;4.20;;;0.60;;
72369;SDS011;60343;-32.030;115.880;2023-01-24T15:24:53;5.13;;;1.10;;
72369;SDS011;60343;-32.030;115.880;2023-01-24T15:27:40;6.25;;;0.70;;
72369;SDS011;60343;-32.030;115.880;2023-01-24T15:30:17;6.38;;;0.90;;
72369;SDS011;60343;-32.030;115.880;2023-01-24T15:33:08;4.10;;;0.47;;
72369;SDS011;60343;-32.030;115.880;2023-01-24T15:35:45;4.35;;;0.38;;
72369;SDS011;60343;-32.030;115.880;2023-01-24T15:38:23;6.72;;;0.55;;
72369;SDS011;60343;-32.030;115.880;2023-01-24T15:41:01;4.22;;;0.70;;
72369;SDS011;60343;-32.030;115.880;2023-01-24T15:43:55;4.03;;;0.90;;
72369;SDS011;60343;-32.030;115.880;2023-01-24T15:46:33;3.78;;;0.80;;
72369;SDS011;60343;-32.030;115.880;2023-01-24T15:49:20;4.05;;;0.45;;
72369;SDS011;60343;-32.030;115.880;2023-01-24T15:54:53;8.52;;;0.98;;
72369;SDS011;60343;-32.030;115.880;2023-01-24T15:57:31;5.40;;;0.57;;
72369;SDS011;60343;-32.030;115.880;2023-01-24T16:03:07;3.03;;;0.30;;
72369;SDS011;60343;-32.030;115.880;2023-01-24T16:05:43;4.53;;;0.40;;
72369;SDS011;60343;-32.030;115.880;2023-01-24T16:08:18;1.65;;;0.22;;
72369;SDS011;60343;-32.030;115.880;2023-01-24T16:10:54;3.53;;;0.43;;
72369;SDS011;60343;-32.030;115.880;2023-01-24T16:13:31;4.15;;;0.45;;
72369;SDS011;60343;-32.030;115.880;2023-01-24T16:16:14;5.55;;;0.50;;
72369;SDS011;60343;-32.030;115.880;2023-01-24T16:18:50;2.38;;;0.40;;